sensor_id;sensor_type;location;lat;lon;timestamp;pressure;altitude;pressure_sealevel;temperature;humidity
72262;BME280;60173;52.112;8.648;2023-03-13T00:00:55;99458.16;;;7.87;87.28
72262;BME280;60173;52.112;8.648;2023-03-13T00:03:22;99455.31;;;7.92;87.29
72262;BME280;60173;52.112;8.648;2023-03-13T00:05:48;99449.53;;;7.85;87.33
72262;BME280;60173;52.112;8.648;2023-03-13T00:08:14;99443.53;;;7.88;87.24
72262;BME280;60173;52.112;8.648;2023-03-13T00:10:42;99438.72;;;7.85;87.24
72262;BME280;60173;52.112;8.648;2023-03-13T00:13:08;99433.31;;;7.85;86.88
72262;BME280;60173;52.112;8.648;2023-03-13T00:15:34;99427.28;;;8.02;86.05
72262;BME280;60173;52.112;8.648;2023-03-13T00:18:01;99430.88;;;7.98;85.83
72262;BME280;60173;52.112;8.648;2023-03-13T00:20:28;99418.66;;;8.00;85.59
72262;BME280;60173;52.112;8.648;2023-03-13T00:22:54;99409.13;;;8.03;85.40
72262;BME280;60173;52.112;8.648;2023-03-13T00:25:21;99407.22;;;8.03;85.57
72262;BME280;60173;52.112;8.648;2023-03-13T00:27:47;99405.47;;;7.99;85.68
72262;BME280;60173;52.112;8.648;2023-03-13T00:30:14;99397.63;;;7.97;85.90
72262;BME280;60173;52.112;8.648;2023-03-13T00:32:43;99397.53;;;8.02;85.54
72262;BME280;60173;52.112;8.648;2023-03-13T00:35:09;99400.59;;;8.09;85.53
72262;BME280;60173;52.112;8.648;2023-03-13T00:37:36;99386.81;;;7.97;86.10
72262;BME280;60173;52.112;8.648;2023-03-13T00:40:03;99404.84;;;8.02;86.25
72262;BME280;60173;52.112;8.648;2023-03-13T00:42:30;99401.50;;;7.82;86.70
72262;BME280;60173;52.112;8.648;2023-03-13T00:44:56;99388.06;;;7.91;86.63
72262;BME280;60173;52.112;8.648;2023-03-13T00:47:23;99383.44;;;7.91;86.82
72262;BME280;60173;52.112;8.648;2023-03-13T00:49:49;99382.81;;;7.95;86.74
72262;BME280;60173;52.112;8.648;2023-03-13T00:52:15;99378.66;;;7.88;86.89
72262;BME280;60173;52.112;8.648;2023-03-13T00:54:42;99379.25;;;7.85;87.03
72262;BME280;60173;52.112;8.648;2023-03-13T00:57:08;99377.47;;;7.81;86.83
72262;BME280;60173;52.112;8.648;2023-03-13T00:59:34;99366.53;;;7.86;86.82
72262;BME280;60173;52.112;8.648;2023-03-13T01:02:01;99367.22;;;7.91;86.41
72262;BME280;60173;52.112;8.648;2023-03-13T01:04:27;99368.41;;;7.99;85.48
72262;BME280;60173;52.112;8.648;2023-03-13T01:06:53;99359.78;;;7.97;85.67
72262;BME280;60173;52.112;8.648;2023-03-13T01:09:20;99361.00;;;7.91;85.20
72262;BME280;60173;52.112;8.648;2023-03-13T01:11:46;99358.66;;;7.98;85.26
72262;BME280;60173;52.112;8.648;2023-03-13T01:14:15;99354.88;;;7.99;85.44
72262;BME280;60173;52.112;8.648;2023-03-13T01:16:42;99344.25;;;8.03;84.81
72262;BME280;60173;52.112;8.648;2023-03-13T01:19:12;99345.03;;;8.03;84.91
72262;BME280;60173;52.112;8.648;2023-03-13T01:21:40;99339.63;;;8.03;84.87
72262;BME280;60173;52.112;8.648;2023-03-13T01:24:07;99340.13;;;8.05;84.95
72262;BME280;60173;52.112;8.648;2023-03-13T01:26:34;99338.34;;;8.01;84.88
72262;BME280;60173;52.112;8.648;2023-03-13T01:29:00;99323.28;;;8.08;84.89
72262;BME280;60173;52.112;8.648;2023-03-13T01:31:31;99320.19;;;8.01;85.38
72262;BME280;60173;52.112;8.648;2023-03-13T01:34:00;99319.56;;;7.96;85.67
72262;BME280;60173;52.112;8.648;2023-03-13T01:36:27;99313.31;;;7.95;85.92
72262;BME280;60173;52.112;8.648;2023-03-13T01:38:56;99303.22;;;8.09;85.46
72262;BME280;60173;52.112;8.648;2023-03-13T01:41:24;99306.13;;;8.13;85.61
72262;BME280;60173;52.112;8.648;2023-03-13T01:43:51;99295.44;;;8.08;86.19
72262;BME280;60173;52.112;8.648;2023-03-13T01:46:23;99289.50;;;7.97;86.76
72262;BME280;60173;52.112;8.648;2023-03-13T01:49:04;99297.38;;;7.85;88.49
72262;BME280;60173;52.112;8.648;2023-03-13T01:51:36;99279.59;;;7.92;88.93
72262;BME280;60173;52.112;8.648;2023-03-13T01:54:10;99283.34;;;7.83;89.87
72262;BME280;60173;52.112;8.648;2023-03-13T01:56:51;99263.13;;;7.80;90.80
72262;BME280;60173;52.112;8.648;2023-03-13T01:59:22;99258.53;;;7.81;91.25
72262;BME280;60173;52.112;8.648;2023-03-13T02:01:52;99236.38;;;7.70;91.89
72262;BME280;60173;52.112;8.648;2023-03-13T02:04:20;99233.06;;;7.51;93.63
72262;BME280;60173;52.112;8.648;2023-03-13T02:06:50;99226.50;;;7.43;94.88
72262;BME280;60173;52.112;8.648;2023-03-13T02:09:21;99216.34;;;7.48;95.42
72262;BME280;60173;52.112;8.648;2023-03-13T02:14:35;99202.50;;;7.41;97.06
72262;BME280;60173;52.112;8.648;2023-03-13T02:17:03;99188.59;;;7.34;97.61
72262;BME280;60173;52.112;8.648;2023-03-13T02:19:37;99181.69;;;7.42;98.04
72262;BME280;60173;52.112;8.648;2023-03-13T02:25:11;99170.44;;;7.26;99.14
72262;BME280;60173;52.112;8.648;2023-03-13T02:27:40;99159.28;;;7.19;99.75
72262;BME280;60173;52.112;8.648;2023-03-13T02:30:08;99147.94;;;7.31;100.00
72262;BME280;60173;52.112;8.648;2023-03-13T02:32:35;99142.63;;;7.25;100.00
72262;BME280;60173;52.112;8.648;2023-03-13T02:35:06;99137.38;;;7.20;100.00
72262;BME280;60173;52.112;8.648;2023-03-13T02:37:34;99127.44;;;7.30;100.00
72262;BME280;60173;52.112;8.648;2023-03-13T02:40:05;99124.72;;;7.30;100.00
72262;BME280;60173;52.112;8.648;2023-03-13T02:42:33;99123.13;;;7.29;100.00
72262;BME280;60173;52.112;8.648;2023-03-13T02:44:59;99114.28;;;7.37;100.00
72262;BME280;60173;52.112;8.648;2023-03-13T02:47:26;99102.84;;;7.40;100.00
72262;BME280;60173;52.112;8.648;2023-03-13T02:49:52;99094.56;;;7.36;100.00
72262;BME280;60173;52.112;8.648;2023-03-13T02:52:23;99083.03;;;7.44;100.00
72262;BME280;60173;52.112;8.648;2023-03-13T02:54:57;99074.56;;;7.37;100.00
72262;BME280;60173;52.112;8.648;2023-03-13T02:57:25;99074.59;;;7.46;100.00
72262;BME280;60173;52.112;8.648;2023-03-13T02:59:52;99065.53;;;7.42;100.00
72262;BME280;60173;52.112;8.648;2023-03-13T03:02:18;99058.75;;;7.53;100.00
72262;BME280;60173;52.112;8.648;2023-03-13T03:04:44;99046.50;;;7.47;100.00
72262;BME280;60173;52.112;8.648;2023-03-13T03:07:11;99050.91;;;7.43;100.00
72262;BME280;60173;52.112;8.648;2023-03-13T03:09:37;99050.28;;;7.46;100.00
72262;BME280;60173;52.112;8.648;2023-03-13T03:12:04;99036.50;;;7.56;100.00
72262;BME280;60173;52.112;8.648;2023-03-13T03:14:30;99038.72;;;7.54;100.00
72262;BME280;60173;52.112;8.648;2023-03-13T03:16:56;99024.75;;;7.52;100.00
72262;BME280;60173;52.112;8.648;2023-03-13T03:19:23;99028.53;;;7.51;100.00
72262;BME280;60173;52.112;8.648;2023-03-13T03:21:49;99019.94;;;7.49;100.00
72262;BME280;60173;52.112;8.648;2023-03-13T03:24:16;99021.53;;;7.41;100.00
72262;BME280;60173;52.112;8.648;2023-03-13T03:26:42;99022.44;;;7.37;100.00
72262;BME280;60173;52.112;8.648;2023-03-13T03:29:08;99022.44;;;7.37;100.00
72262;BME280;60173;52.112;8.648;2023-03-13T03:31:34;99013.50;;;7.28;100.00
72262;BME280;60173;52.112;8.648;2023-03-13T03:34:01;99010.19;;;7.31;100.00
72262;BME280;60173;52.112;8.648;2023-03-13T03:36:28;99005.91;;;7.30;100.00
72262;BME280;60173;52.112;8.648;2023-03-13T03:38:54;99013.53;;;7.36;100.00
72262;BME280;60173;52.112;8.648;2023-03-13T03:41:20;99013.09;;;7.43;100.00
72262;BME280;60173;52.112;8.648;2023-03-13T03:43:47;99002.44;;;7.38;100.00
72262;BME280;60173;52.112;8.648;2023-03-13T03:46:14;98996.41;;;7.41;100.00
72262;BME280;60173;52.112;8.648;2023-03-13T03:48:40;98989.25;;;7.36;100.00
72262;BME280;60173;52.112;8.648;2023-03-13T03:51:07;98981.31;;;7.40;100.00
72262;BME280;60173;52.112;8.648;2023-03-13T03:53:33;98971.25;;;7.32;100.00
72262;BME280;60173;52.112;8.648;2023-03-13T03:56:00;98961.63;;;7.48;100.00
72262;BME280;60173;52.112;8.648;2023-03-13T03:58:27;98965.31;;;7.52;100.00
72262;BME280;60173;52.112;8.648;2023-03-13T04:00:56;98961.75;;;7.43;100.00
72262;BME280;60173;52.112;8.648;2023-03-13T04:03:23;98958.94;;;7.48;100.00
72262;BME280;60173;52.112;8.648;2023-03-13T04:05:49;98948.78;;;7.54;100.00
72262;BME280;60173;52.112;8.648;2023-03-13T04:08:15;98956.09;;;7.53;100.00
72262;BME280;60173;52.112;8.648;2023-03-13T04:10:42;98953.41;;;7.62;100.00
72262;BME280;60173;52.112;8.648;2023-03-13T04:13:08;98947.66;;;7.55;100.00
72262;BME280;60173;52.112;8.648;2023-03-13T04:15:37;98946.25;;;7.66;100.00
72262;BME280;60173;52.112;8.648;2023-03-13T04:18:04;98943.72;;;7.69;100.00
72262;BME280;60173;52.112;8.648;2023-03-13T04:20:30;98944.50;;;7.61;100.00
72262;BME280;60173;52.112;8.648;2023-03-13T04:22:57;98921.78;;;7.71;100.00
72262;BME280;60173;52.112;8.648;2023-03-13T04:25:23;98906.84;;;7.74;100.00
72262;BME280;60173;52.112;8.648;2023-03-13T04:27:49;98910.34;;;7.65;100.00
72262;BME280;60173;52.112;8.648;2023-03-13T04:30:16;98906.84;;;7.65;100.00
72262;BME280;60173;52.112;8.648;2023-03-13T04:32:44;98910.03;;;7.76;100.00
72262;BME280;60173;52.112;8.648;2023-03-13T04:35:10;98914.47;;;7.72;100.00
72262;BME280;60173;52.112;8.648;2023-03-13T04:37:36;98915.75;;;7.83;100.00
72262;BME280;60173;52.112;8.648;2023-03-13T04:40:03;98901.28;;;7.79;100.00
72262;BME280;60173;52.112;8.648;2023-03-13T04:42:30;98896.69;;;7.88;100.00
72262;BME280;60173;52.112;8.648;2023-03-13T04:44:56;98906.06;;;7.82;100.00
72262;BME280;60173;52.112;8.648;2023-03-13T04:47:22;98895.91;;;7.87;100.00
72262;BME280;60173;52.112;8.648;2023-03-13T04:49:49;98891.56;;;7.95;100.00
72262;BME280;60173;52.112;8.648;2023-03-13T04:52:15;98903.38;;;7.99;100.00
72262;BME280;60173;52.112;8.648;2023-03-13T04:54:41;98899.88;;;7.99;100.00
72262;BME280;60173;52.112;8.648;2023-03-13T04:57:08;98890.31;;;8.01;100.00
72262;BME280;60173;52.112;8.648;2023-03-13T04:59:34;98886.00;;;8.09;100.00
72262;BME280;60173;52.112;8.648;2023-03-13T05:02:00;98888.56;;;8.05;100.00
72262;BME280;60173;52.112;8.648;2023-03-13T05:04:26;98880.59;;;8.09;100.00
72262;BME280;60173;52.112;8.648;2023-03-13T05:06:53;98875.97;;;8.09;100.00
72262;BME280;60173;52.112;8.648;2023-03-13T05:09:19;98866.44;;;8.12;100.00
72262;BME280;60173;52.112;8.648;2023-03-13T05:11:46;98876.31;;;8.17;100.00
72262;BME280;60173;52.112;8.648;2023-03-13T05:14:12;98862.31;;;8.14;100.00
72262;BME280;60173;52.112;8.648;2023-03-13T05:16:38;98852.75;;;8.17;100.00
72262;BME280;60173;52.112;8.648;2023-03-13T05:19:05;98852.63;;;8.13;100.00
72262;BME280;60173;52.112;8.648;2023-03-13T05:21:31;98850.19;;;8.21;100.00
72262;BME280;60173;52.112;8.648;2023-03-13T05:23:57;98847.34;;;8.26;100.00
72262;BME280;60173;52.112;8.648;2023-03-13T05:26:24;98854.00;;;8.28;100.00
72262;BME280;60173;52.112;8.648;2023-03-13T05:28:50;98846.38;;;8.39;100.00
72262;BME280;60173;52.112;8.648;2023-03-13T05:31:16;98838.06;;;8.44;100.00
72262;BME280;60173;52.112;8.648;2023-03-13T05:33:43;98843.97;;;8.46;100.00
72262;BME280;60173;52.112;8.648;2023-03-13T05:36:09;98839.22;;;8.43;100.00
72262;BME280;60173;52.112;8.648;2023-03-13T05:38:36;98847.47;;;8.47;100.00
72262;BME280;60173;52.112;8.648;2023-03-13T05:41:02;98834.41;;;8.49;100.00
72262;BME280;60173;52.112;8.648;2023-03-13T05:43:28;98842.50;;;8.57;100.00
72262;BME280;60173;52.112;8.648;2023-03-13T05:45:55;98837.88;;;8.58;100.00
72262;BME280;60173;52.112;8.648;2023-03-13T05:48:21;98835.66;;;8.60;100.00
72262;BME280;60173;52.112;8.648;2023-03-13T05:50:47;98825.91;;;8.68;100.00
72262;BME280;60173;52.112;8.648;2023-03-13T05:53:14;98818.91;;;8.67;100.00
72262;BME280;60173;52.112;8.648;2023-03-13T05:55:41;98809.81;;;8.71;100.00
72262;BME280;60173;52.112;8.648;2023-03-13T05:58:07;98814.28;;;8.67;100.00
72262;BME280;60173;52.112;8.648;2023-03-13T06:00:33;98809.16;;;8.74;100.00
72262;BME280;60173;52.112;8.648;2023-03-13T06:03:00;98800.34;;;8.86;100.00
72262;BME280;60173;52.112;8.648;2023-03-13T06:05:26;98799.69;;;8.89;100.00
72262;BME280;60173;52.112;8.648;2023-03-13T06:07:52;98786.91;;;8.98;100.00
72262;BME280;60173;52.112;8.648;2023-03-13T06:10:19;98777.94;;;9.07;100.00
72262;BME280;60173;52.112;8.648;2023-03-13T06:12:51;98783.81;;;9.09;100.00
72262;BME280;60173;52.112;8.648;2023-03-13T06:15:18;98786.97;;;9.11;100.00
72262;BME280;60173;52.112;8.648;2023-03-13T06:17:44;98788.84;;;9.19;100.00
72262;BME280;60173;52.112;8.648;2023-03-13T06:20:11;98782.44;;;9.23;100.00
72262;BME280;60173;52.112;8.648;2023-03-13T06:22:37;98782.38;;;9.32;100.00
72262;BME280;60173;52.112;8.648;2023-03-13T06:25:04;98796.16;;;9.39;100.00
72262;BME280;60173;52.112;8.648;2023-03-13T06:27:30;98793.06;;;9.49;100.00
72262;BME280;60173;52.112;8.648;2023-03-13T06:29:57;98782.59;;;9.60;100.00
72262;BME280;60173;52.112;8.648;2023-03-13T06:32:23;98793.00;;;9.58;100.00
72262;BME280;60173;52.112;8.648;2023-03-13T06:34:50;98801.06;;;9.67;100.00
72262;BME280;60173;52.112;8.648;2023-03-13T06:37:17;98791.78;;;9.68;100.00
72262;BME280;60173;52.112;8.648;2023-03-13T06:39:43;98814.16;;;9.65;100.00
72262;BME280;60173;52.112;8.648;2023-03-13T06:42:09;98808.72;;;9.65;100.00
72262;BME280;60173;52.112;8.648;2023-03-13T06:44:36;98807.41;;;9.71;100.00
72262;BME280;60173;52.112;8.648;2023-03-13T06:47:02;98794.44;;;9.77;100.00
72262;BME280;60173;52.112;8.648;2023-03-13T06:49:29;98789.78;;;9.77;100.00
72262;BME280;60173;52.112;8.648;2023-03-13T06:51:58;98797.25;;;9.80;100.00
72262;BME280;60173;52.112;8.648;2023-03-13T06:54:24;98805.41;;;9.80;100.00
72262;BME280;60173;52.112;8.648;2023-03-13T06:56:51;98797.72;;;9.82;100.00
72262;BME280;60173;52.112;8.648;2023-03-13T06:59:17;98798.88;;;9.81;100.00
72262;BME280;60173;52.112;8.648;2023-03-13T07:01:43;98821.66;;;9.80;100.00
72262;BME280;60173;52.112;8.648;2023-03-13T07:04:11;98817.31;;;9.88;100.00
72262;BME280;60173;52.112;8.648;2023-03-13T07:06:38;98811.88;;;9.88;100.00
72262;BME280;60173;52.112;8.648;2023-03-13T07:09:04;98807.59;;;9.87;100.00
72262;BME280;60173;52.112;8.648;2023-03-13T07:11:31;98805.19;;;9.85;100.00
72262;BME280;60173;52.112;8.648;2023-03-13T07:13:57;98808.56;;;9.82;100.00
72262;BME280;60173;52.112;8.648;2023-03-13T07:16:41;98817.41;;;9.91;100.00
72262;BME280;60173;52.112;8.648;2023-03-13T07:19:08;98813.72;;;9.96;100.00
72262;BME280;60173;52.112;8.648;2023-03-13T07:21:34;98815.50;;;9.92;100.00
72262;BME280;60173;52.112;8.648;2023-03-13T07:24:00;98812.69;;;10.01;100.00
72262;BME280;60173;52.112;8.648;2023-03-13T07:26:27;98804.81;;;10.08;100.00
72262;BME280;60173;52.112;8.648;2023-03-13T07:28:54;98802.13;;;10.08;100.00
72262;BME280;60173;52.112;8.648;2023-03-13T07:31:21;98808.91;;;10.14;100.00
72262;BME280;60173;52.112;8.648;2023-03-13T07:33:48;98821.47;;;10.18;100.00
72262;BME280;60173;52.112;8.648;2023-03-13T07:36:14;98802.16;;;10.20;100.00
72262;BME280;60173;52.112;8.648;2023-03-13T07:38:41;98816.50;;;10.21;100.00
72262;BME280;60173;52.112;8.648;2023-03-13T07:41:10;98809.06;;;10.30;100.00
72262;BME280;60173;52.112;8.648;2023-03-13T07:43:36;98811.59;;;10.35;100.00
72262;BME280;60173;52.112;8.648;2023-03-13T07:46:05;98820.78;;;10.43;100.00
72262;BME280;60173;52.112;8.648;2023-03-13T07:48:36;98803.03;;;10.45;100.00
72262;BME280;60173;52.112;8.648;2023-03-13T07:51:05;98809.72;;;10.60;100.00
72262;BME280;60173;52.112;8.648;2023-03-13T07:53:32;98817.63;;;10.65;100.00
72262;BME280;60173;52.112;8.648;2023-03-13T07:56:08;98801.09;;;10.58;100.00
72262;BME280;60173;52.112;8.648;2023-03-13T07:58:37;98804.16;;;10.56;100.00
72262;BME280;60173;52.112;8.648;2023-03-13T08:01:18;98806.53;;;10.58;100.00
72262;BME280;60173;52.112;8.648;2023-03-13T08:03:45;98804.16;;;10.56;100.00
72262;BME280;60173;52.112;8.648;2023-03-13T08:06:13;98802.81;;;10.62;100.00
72262;BME280;60173;52.112;8.648;2023-03-13T08:08:40;98795.25;;;10.68;100.00
72262;BME280;60173;52.112;8.648;2023-03-13T08:11:11;98789.56;;;10.61;100.00
72262;BME280;60173;52.112;8.648;2023-03-13T08:13:39;98785.06;;;10.65;100.00
72262;BME280;60173;52.112;8.648;2023-03-13T08:16:14;98786.88;;;10.73;100.00
72262;BME280;60173;52.112;8.648;2023-03-13T08:18:45;98778.47;;;10.66;100.00
72262;BME280;60173;52.112;8.648;2023-03-13T08:21:20;98774.88;;;10.62;100.00
72262;BME280;60173;52.112;8.648;2023-03-13T08:23:47;98783.03;;;10.62;100.00
72262;BME280;60173;52.112;8.648;2023-03-13T08:26:15;98773.53;;;10.68;100.00
72262;BME280;60173;52.112;8.648;2023-03-13T08:28:44;98775.34;;;10.76;100.00
72262;BME280;60173;52.112;8.648;2023-03-13T08:31:11;98772.16;;;10.74;100.00
72262;BME280;60173;52.112;8.648;2023-03-13T08:33:40;98761.75;;;10.89;100.00
72262;BME280;60173;52.112;8.648;2023-03-13T08:36:21;98762.84;;;10.88;100.00
72262;BME280;60173;52.112;8.648;2023-03-13T08:38:48;98756.75;;;10.91;99.73
72262;BME280;60173;52.112;8.648;2023-03-13T08:41:25;98755.50;;;11.00;98.79
72262;BME280;60173;52.112;8.648;2023-03-13T08:43:53;98750.81;;;11.13;97.60
72262;BME280;60173;52.112;8.648;2023-03-13T08:46:20;98747.78;;;11.15;97.74
72262;BME280;60173;52.112;8.648;2023-03-13T08:48:48;98749.25;;;11.12;97.71
72262;BME280;60173;52.112;8.648;2023-03-13T08:51:15;98755.13;;;11.14;98.04
72262;BME280;60173;52.112;8.648;2023-03-13T08:53:42;98753.09;;;11.11;98.07
72262;BME280;60173;52.112;8.648;2023-03-13T08:56:11;98741.19;;;11.16;98.18
72262;BME280;60173;52.112;8.648;2023-03-13T08:58:38;98747.50;;;11.32;96.90
72262;BME280;60173;52.112;8.648;2023-03-13T09:01:08;98744.53;;;11.37;96.74
72262;BME280;60173;52.112;8.648;2023-03-13T09:03:35;98749.28;;;11.40;96.97
72262;BME280;60173;52.112;8.648;2023-03-13T09:06:01;98739.00;;;11.34;97.22
72262;BME280;60173;52.112;8.648;2023-03-13T09:08:29;98743.63;;;11.33;96.58
72262;BME280;60173;52.112;8.648;2023-03-13T09:11:04;98744.28;;;11.42;96.89
72262;BME280;60173;52.112;8.648;2023-03-13T09:13:31;98744.13;;;11.51;95.39
72262;BME280;60173;52.112;8.648;2023-03-13T09:16:00;98742.09;;;11.60;94.03
72262;BME280;60173;52.112;8.648;2023-03-13T09:18:28;98750.78;;;11.66;93.89
72262;BME280;60173;52.112;8.648;2023-03-13T09:20:54;98739.38;;;11.60;93.44
72262;BME280;60173;52.112;8.648;2023-03-13T09:23:22;98746.00;;;11.63;93.00
72262;BME280;60173;52.112;8.648;2023-03-13T09:25:51;98754.56;;;11.77;92.59
72262;BME280;60173;52.112;8.648;2023-03-13T09:28:18;98742.66;;;11.82;91.85
72262;BME280;60173;52.112;8.648;2023-03-13T09:30:44;98747.09;;;11.86;91.87
72262;BME280;60173;52.112;8.648;2023-03-13T09:33:11;98754.09;;;11.87;92.00
72262;BME280;60173;52.112;8.648;2023-03-13T09:35:38;98760.00;;;11.89;92.22
72262;BME280;60173;52.112;8.648;2023-03-13T09:38:04;98754.31;;;11.82;92.89
72262;BME280;60173;52.112;8.648;2023-03-13T09:40:37;98748.09;;;11.82;93.61
72262;BME280;60173;52.112;8.648;2023-03-13T09:43:10;98751.31;;;11.71;94.29
72262;BME280;60173;52.112;8.648;2023-03-13T09:45:42;98751.56;;;11.66;95.27
72262;BME280;60173;52.112;8.648;2023-03-13T09:48:30;98753.84;;;11.64;95.38
72262;BME280;60173;52.112;8.648;2023-03-13T09:51:12;98744.53;;;11.65;95.69
72262;BME280;60173;52.112;8.648;2023-03-13T09:53:45;98742.19;;;11.64;95.83
72262;BME280;60173;52.112;8.648;2023-03-13T09:56:16;98744.13;;;11.79;95.97
72262;BME280;60173;52.112;8.648;2023-03-13T09:59:10;98747.28;;;11.93;94.12
72262;BME280;60173;52.112;8.648;2023-03-13T10:01:41;98725.97;;;12.11;93.28
72262;BME280;60173;52.112;8.648;2023-03-13T10:04:25;98725.50;;;12.41;91.95
72262;BME280;60173;52.112;8.648;2023-03-13T10:06:53;98720.13;;;12.76;89.34
72262;BME280;60173;52.112;8.648;2023-03-13T10:09:34;98707.13;;;13.05;87.16
72262;BME280;60173;52.112;8.648;2023-03-13T10:12:19;98710.22;;;13.23;85.88
72262;BME280;60173;52.112;8.648;2023-03-13T10:15:21;98692.97;;;13.54;84.33
72262;BME280;60173;52.112;8.648;2023-03-13T10:17:49;98698.75;;;13.72;82.77
72262;BME280;60173;52.112;8.648;2023-03-13T10:20:26;98697.81;;;14.07;82.38
72262;BME280;60173;52.112;8.648;2023-03-13T10:23:48;98685.53;;;14.20;81.15
72262;BME280;60173;52.112;8.648;2023-03-13T10:26:12;98684.16;;;14.07;79.46
72262;BME280;60173;52.112;8.648;2023-03-13T10:28:41;98670.03;;;14.24;79.55
72262;BME280;60173;52.112;8.648;2023-03-13T10:31:15;98680.97;;;14.51;77.86
72262;BME280;60173;52.112;8.648;2023-03-13T10:33:46;98672.69;;;14.70;77.06
72262;BME280;60173;52.112;8.648;2023-03-13T10:36:13;98657.84;;;15.01;76.51
72262;BME280;60173;52.112;8.648;2023-03-13T10:38:46;98673.66;;;15.15;74.90
72262;BME280;60173;52.112;8.648;2023-03-13T10:41:32;98681.97;;;14.92;75.33
72262;BME280;60173;52.112;8.648;2023-03-13T10:44:05;98657.34;;;14.92;76.44
72262;BME280;60173;52.112;8.648;2023-03-13T10:46:34;98657.75;;;14.90;75.98
72262;BME280;60173;52.112;8.648;2023-03-13T10:49:16;98659.00;;;14.97;75.96
72262;BME280;60173;52.112;8.648;2023-03-13T10:51:52;98665.91;;;15.21;76.05
72262;BME280;60173;52.112;8.648;2023-03-13T10:54:28;98661.44;;;15.05;74.48
72262;BME280;60173;52.112;8.648;2023-03-13T10:59:48;98657.34;;;14.62;76.48
72262;BME280;60173;52.112;8.648;2023-03-13T11:02:33;98641.78;;;14.66;74.59
72262;BME280;60173;52.112;8.648;2023-03-13T11:05:30;98644.59;;;14.69;74.42
72262;BME280;60173;52.112;8.648;2023-03-13T11:07:57;98646.22;;;15.04;74.70
72262;BME280;60173;52.112;8.648;2023-03-13T11:10:25;98640.50;;;15.17;72.39
72262;BME280;60173;52.112;8.648;2023-03-13T11:12:54;98627.44;;;15.03;72.58
72262;BME280;60173;52.112;8.648;2023-03-13T11:15:33;98623.03;;;15.28;71.70
72262;BME280;60173;52.112;8.648;2023-03-13T11:18:10;98622.97;;;15.62;72.22
72262;BME280;60173;52.112;8.648;2023-03-13T11:20:42;98614.41;;;16.08;70.86
72262;BME280;60173;52.112;8.648;2023-03-13T11:23:19;98602.88;;;15.81;68.93
72262;BME280;60173;52.112;8.648;2023-03-13T11:28:48;98590.09;;;15.55;71.03
72262;BME280;60173;52.112;8.648;2023-03-13T11:31:26;98592.88;;;15.62;69.78
72262;BME280;60173;52.112;8.648;2023-03-13T11:34:20;98602.00;;;15.73;68.62
72262;BME280;60173;52.112;8.648;2023-03-13T11:42:30;98595.88;;;16.42;65.37
72262;BME280;60173;52.112;8.648;2023-03-13T11:50:59;98590.78;;;15.86;67.44
72262;BME280;60173;52.112;8.648;2023-03-13T11:53:38;98568.97;;;15.96;67.96
72262;BME280;60173;52.112;8.648;2023-03-13T11:56:17;98562.78;;;16.03;65.98
72262;BME280;60173;52.112;8.648;2023-03-13T12:01:27;98559.72;;;16.15;66.26
72262;BME280;60173;52.112;8.648;2023-03-13T12:04:04;98552.56;;;16.00;65.13
72262;BME280;60173;52.112;8.648;2023-03-13T12:06:45;98548.44;;;15.72;63.58
72262;BME280;60173;52.112;8.648;2023-03-13T12:09:22;98556.66;;;15.72;64.59
72262;BME280;60173;52.112;8.648;2023-03-13T12:12:04;98541.63;;;16.00;65.88
72262;BME280;60173;52.112;8.648;2023-03-13T12:14:39;98539.94;;;16.50;64.96
72262;BME280;60173;52.112;8.648;2023-03-13T12:20:05;98527.59;;;16.09;63.65
72262;BME280;60173;52.112;8.648;2023-03-13T12:25:17;98519.97;;;15.80;64.96
72262;BME280;60173;52.112;8.648;2023-03-13T12:27:57;98514.53;;;15.88;64.82
72262;BME280;60173;52.112;8.648;2023-03-13T12:30:42;98513.84;;;16.01;65.00
72262;BME280;60173;52.112;8.648;2023-03-13T12:33:18;98511.19;;;16.12;64.30
72262;BME280;60173;52.112;8.648;2023-03-13T12:36:13;98504.94;;;16.15;64.61
72262;BME280;60173;52.112;8.648;2023-03-13T12:41:27;98497.47;;;16.09;64.21
72262;BME280;60173;52.112;8.648;2023-03-13T12:43:56;98492.09;;;16.26;64.50
72262;BME280;60173;52.112;8.648;2023-03-13T12:50:07;98490.97;;;16.35;61.86
72262;BME280;60173;52.112;8.648;2023-03-13T12:58:30;98479.56;;;16.25;61.13
72262;BME280;60173;52.112;8.648;2023-03-13T13:01:04;98475.94;;;16.07;61.93
72262;BME280;60173;52.112;8.648;2023-03-13T13:03:38;98463.09;;;16.15;60.96
72262;BME280;60173;52.112;8.648;2023-03-13T13:06:11;98461.53;;;16.17;60.44
72262;BME280;60173;52.112;8.648;2023-03-13T13:08:41;98458.38;;;16.15;60.63
72262;BME280;60173;52.112;8.648;2023-03-13T13:16:54;98448.69;;;16.36;60.32
72262;BME280;60173;52.112;8.648;2023-03-13T13:24:57;98418.34;;;16.84;57.65
72262;BME280;60173;52.112;8.648;2023-03-13T13:32:49;98430.03;;;16.73;59.02
72262;BME280;60173;52.112;8.648;2023-03-13T13:35:23;98428.91;;;17.00;58.39
72262;BME280;60173;52.112;8.648;2023-03-13T13:37:50;98443.03;;;17.05;56.90
72262;BME280;60173;52.112;8.648;2023-03-13T13:40:27;98399.13;;;16.77;56.12
72262;BME280;60173;52.112;8.648;2023-03-13T13:42:58;98427.75;;;16.90;57.48
72262;BME280;60173;52.112;8.648;2023-03-13T13:56:27;98413.50;;;16.41;59.71
72262;BME280;60173;52.112;8.648;2023-03-13T13:58:58;98415.47;;;16.44;59.09
72262;BME280;60173;52.112;8.648;2023-03-13T14:01:25;98403.72;;;16.40;58.99
72262;BME280;60173;52.112;8.648;2023-03-13T14:03:53;98418.56;;;16.43;59.58
72262;BME280;60173;52.112;8.648;2023-03-13T14:06:27;98413.50;;;16.38;59.80
72262;BME280;60173;52.112;8.648;2023-03-13T14:08:56;98418.25;;;16.55;60.16
72262;BME280;60173;52.112;8.648;2023-03-13T14:11:35;98411.63;;;16.78;59.62
72262;BME280;60173;52.112;8.648;2023-03-13T14:16:36;98412.69;;;16.34;58.92
72262;BME280;60173;52.112;8.648;2023-03-13T14:19:03;98407.59;;;16.39;57.68
72262;BME280;60173;52.112;8.648;2023-03-13T14:21:29;98414.31;;;16.49;57.58
72262;BME280;60173;52.112;8.648;2023-03-13T14:23:56;98423.28;;;16.46;58.62
72262;BME280;60173;52.112;8.648;2023-03-13T14:26:23;98418.56;;;16.36;59.29